Time;durP1;ratioP1;P1;durP2;ratioP2;P2;SDS_P1;SDS_P2;PMS_P1;PMS_P2;Temp;Humidity;BMP_temperature;BMP_pressure;BME280_temperature;BME280_humidity;BME280_pressure;Samples;Min_cycle;Max_cycle;Signal;HPM_P1;HPM_P2
2021/05/25 00:01:24;;;;;;;1.65;0.40;;;12.80;99.90;;;;;;5066021;28;20036;-51
2021/05/25 00:03:50;;;;;;;0.45;0.40;;;12.90;99.90;;;;;;5065384;28;20065;-53
2021/05/25 00:06:15;;;;;;;0.50;0.40;;;12.90;99.90;;;;;;5065452;28;20032;-50
2021/05/25 00:08:41;;;;;;;1.17;0.50;;;12.90;99.90;;;;;;5065924;28;20027;-52
2021/05/25 00:11:08;;;;;;;1.58;0.60;;;12.70;99.90;;;;;;5065839;28;20036;-51
2021/05/25 00:13:35;;;;;;;0.65;0.40;;;12.60;99.90;;;;;;5064927;28;20021;-53
2021/05/25 00:16:01;;;;;;;1.85;0.40;;;12.60;99.90;;;;;;5065351;28;20115;-52
2021/05/25 00:18:27;;;;;;;2.15;0.47;;;12.50;99.90;;;;;;5066111;28;20088;-50
2021/05/25 00:20:53;;;;;;;1.15;0.57;;;12.60;99.90;;;;;;5065893;28;20093;-51
2021/05/25 00:23:19;;;;;;;0.85;0.40;;;12.50;99.90;;;;;;5066138;28;20487;-51
2021/05/25 00:25:45;;;;;;;1.30;0.43;;;12.60;99.90;;;;;;5065330;28;20574;-52
2021/05/25 00:28:11;;;;;;;1.98;0.47;;;12.60;99.90;;;;;;5065637;28;20024;-52
2021/05/25 00:30:37;;;;;;;1.17;0.50;;;12.70;99.90;;;;;;5065793;28;20028;-52
2021/05/25 00:33:03;;;;;;;1.13;0.60;;;12.60;99.90;;;;;;5066111;28;20028;-53
2021/05/25 00:35:34;;;;;;;0.60;0.30;;;12.40;99.90;;;;;;5066200;28;20029;-51
2021/05/25 00:38:01;;;;;;;0.57;0.40;;;12.50;99.90;;;;;;5065190;28;20493;-50
2021/05/25 00:40:28;;;;;;;0.90;0.52;;;12.50;99.90;;;;;;5066128;28;20024;-50
2021/05/25 00:42:54;;;;;;;0.75;0.40;;;12.50;99.90;;;;;;5066424;28;20023;-54
2021/05/25 00:45:20;;;;;;;0.40;0.40;;;12.50;99.90;;;;;;5065447;28;20499;-50
2021/05/25 00:47:46;;;;;;;0.68;0.45;;;12.60;99.90;;;;;;5065021;28;20035;-53
2021/05/25 00:50:19;;;;;;;1.33;0.52;;;12.60;99.90;;;;;;5065148;28;20036;-51
2021/05/25 00:52:54;;;;;;;0.40;0.33;;;12.60;99.90;;;;;;5065522;28;20111;-51
2021/05/25 00:55:22;;;;;;;0.77;0.30;;;12.60;99.90;;;;;;5065140;28;20267;-52
2021/05/25 00:57:51;;;;;;;1.42;0.50;;;12.50;99.90;;;;;;5065138;28;20032;-50
2021/05/25 01:00:22;;;;;;;0.30;0.30;;;12.50;99.90;;;;;;5064976;28;20039;-50
2021/05/25 01:02:48;;;;;;;2.08;0.50;;;12.60;99.90;;;;;;5065328;28;20107;-50
2021/05/25 01:05:15;;;;;;;0.57;0.28;;;12.70;99.90;;;;;;5065562;28;20565;-51
2021/05/25 01:07:43;;;;;;;0.25;0.25;;;12.70;99.90;;;;;;5064338;28;20403;-52
2021/05/25 01:10:11;;;;;;;0.65;0.40;;;12.70;99.90;;;;;;5064044;28;20043;-51
2021/05/25 01:12:48;;;;;;;0.60;0.30;;;12.70;99.90;;;;;;5064934;28;20032;-51
2021/05/25 01:15:16;;;;;;;0.55;0.30;;;12.70;99.90;;;;;;5065117;28;20035;-52
2021/05/25 01:17:42;;;;;;;0.85;0.30;;;12.70;99.90;;;;;;5064112;28;20335;-52
2021/05/25 01:20:08;;;;;;;0.60;0.30;;;12.70;99.90;;;;;;5064246;28;20067;-50
2021/05/25 01:22:34;;;;;;;1.17;0.40;;;12.70;99.90;;;;;;5065403;28;20039;-51
2021/05/25 01:25:07;;;;;;;2.50;0.40;;;12.50;99.90;;;;;;5065545;28;20025;-52
2021/05/25 01:27:33;;;;;;;5.57;0.50;;;12.50;99.90;;;;;;5065131;28;20017;-51
2021/05/25 01:29:59;;;;;;;2.17;0.60;;;12.50;99.90;;;;;;5064352;28;20410;-53
2021/05/25 01:32:24;;;;;;;1.25;0.55;;;12.50;99.90;;;;;;5064738;28;20036;-53
2021/05/25 01:34:50;;;;;;;1.25;0.40;;;12.60;99.90;;;;;;5065473;28;20514;-52
2021/05/25 01:37:16;;;;;;;0.35;0.30;;;12.50;99.90;;;;;;5065191;28;20096;-53
2021/05/25 01:39:43;;;;;;;1.02;0.40;;;12.60;99.90;;;;;;5064257;28;20135;-51
2021/05/25 01:42:08;;;;;;;0.30;0.30;;;12.50;99.90;;;;;;5064985;28;20123;-50
2021/05/25 01:44:37;;;;;;;0.93;0.40;;;12.40;99.90;;;;;;5065055;28;20514;-51
2021/05/25 01:47:03;;;;;;;1.42;0.50;;;12.40;99.90;;;;;;5064951;28;20123;-50
2021/05/25 01:49:28;;;;;;;1.00;0.40;;;12.40;99.90;;;;;;5064136;28;20035;-50
2021/05/25 01:51:54;;;;;;;1.05;0.47;;;12.60;99.90;;;;;;5065656;28;20563;-51
2021/05/25 01:54:20;;;;;;;2.55;0.85;;;12.40;99.90;;;;;;5064163;28;20035;-52
2021/05/25 01:56:46;;;;;;;0.50;0.40;;;12.30;99.90;;;;;;5064529;28;20541;-50
2021/05/25 01:59:12;;;;;;;0.90;0.47;;;12.30;99.90;;;;;;5063699;28;20034;-50
2021/05/25 02:01:38;;;;;;;1.05;0.68;;;12.30;99.90;;;;;;5064608;28;20398;-53
2021/05/25 02:04:04;;;;;;;1.13;0.70;;;12.20;99.90;;;;;;5061273;28;20487;-53
2021/05/25 02:06:30;;;;;;;2.60;0.70;;;12.20;99.90;;;;;;5065106;28;20463;-53
2021/05/25 02:08:56;;;;;;;1.77;0.75;;;12.10;99.90;;;;;;5063998;28;20108;-53
2021/05/25 02:11:22;;;;;;;3.30;0.70;;;12.10;99.90;;;;;;5065214;28;20128;-51
2021/05/25 02:13:48;;;;;;;2.40;0.80;;;12.10;99.90;;;;;;5068772;28;20057;-51
2021/05/25 02:16:17;;;;;;;1.30;0.52;;;12.20;99.90;;;;;;5068687;28;20446;-52
2021/05/25 02:18:47;;;;;;;1.10;0.50;;;12.20;99.90;;;;;;5068019;28;20079;-53
2021/05/25 02:21:16;;;;;;;1.67;0.63;;;12.10;99.90;;;;;;5068791;28;20291;-51
2021/05/25 02:23:43;;;;;;;2.65;0.70;;;12.20;99.90;;;;;;5068189;28;20411;-51
2021/05/25 02:26:09;;;;;;;1.92;0.50;;;12.10;99.90;;;;;;5068686;28;20020;-53
2021/05/25 02:28:35;;;;;;;2.70;0.93;;;12.10;99.90;;;;;;5067526;28;20490;-52
2021/05/25 02:31:02;;;;;;;1.50;0.55;;;12.00;99.90;;;;;;5068875;28;20479;-50
2021/05/25 02:33:29;;;;;;;0.70;0.30;;;12.00;99.90;;;;;;5068504;28;20035;-51
2021/05/25 02:35:57;;;;;;;1.05;0.40;;;12.20;99.90;;;;;;5068882;28;20068;-50
2021/05/25 02:38:25;;;;;;;1.48;0.80;;;12.20;99.90;;;;;;5068362;28;20025;-51
2021/05/25 02:40:52;;;;;;;0.45;0.30;;;12.30;99.90;;;;;;5066969;28;20035;-54
2021/05/25 02:43:20;;;;;;;0.70;0.40;;;12.30;99.90;;;;;;5069139;28;20024;-51
2021/05/25 02:45:47;;;;;;;1.05;0.40;;;12.30;99.90;;;;;;5068255;28;20020;-52
2021/05/25 02:48:13;;;;;;;0.82;0.40;;;12.50;99.90;;;;;;5070033;28;20095;-50
2021/05/25 02:50:39;;;;;;;1.17;0.40;;;12.50;99.90;;;;;;5069063;28;20105;-52
2021/05/25 02:53:05;;;;;;;0.65;0.40;;;12.50;99.90;;;;;;5103609;28;20024;-54
2021/05/25 02:55:34;;;;;;;0.98;0.40;;;12.60;99.90;;;;;;5070638;28;20244;-50
2021/05/25 02:58:02;;;;;;;0.32;0.32;;;12.60;99.90;;;;;;5071131;28;20032;-52
2021/05/25 03:00:31;;;;;;;0.63;0.30;;;12.60;99.90;;;;;;5070009;28;20407;-52
2021/05/25 03:02:57;;;;;;;1.08;0.30;;;12.60;99.90;;;;;;5069223;28;20111;-50
2021/05/25 03:05:24;;;;;;;0.30;0.25;;;12.60;99.90;;;;;;5071410;28;20166;-52
2021/05/25 03:07:52;;;;;;;1.08;0.40;;;12.70;99.90;;;;;;5071184;28;20056;-53
2021/05/25 03:10:20;;;;;;;1.83;0.57;;;12.50;99.90;;;;;;5069912;28;20032;-49
2021/05/25 03:12:46;;;;;;;0.77;0.50;;;12.40;99.90;;;;;;5069411;28;20568;-54
2021/05/25 03:15:18;;;;;;;0.50;0.50;;;12.40;99.90;;;;;;5070939;28;20029;-53
2021/05/25 03:17:44;;;;;;;0.43;0.40;;;12.70;99.90;;;;;;5069868;28;20036;-53
2021/05/25 03:20:12;;;;;;;1.67;0.40;;;12.90;99.90;;;;;;5070016;28;20451;-50
2021/05/25 03:22:40;;;;;;;0.40;0.40;;;13.00;99.90;;;;;;5067671;28;20071;-50
2021/05/25 03:25:08;;;;;;;1.35;0.57;;;13.00;99.90;;;;;;5068491;28;20021;-50
2021/05/25 03:27:34;;;;;;;1.05;0.50;;;12.80;99.90;;;;;;5068295;28;20033;-50
2021/05/25 03:30:02;;;;;;;1.05;0.50;;;12.70;99.90;;;;;;5065309;28;20026;-51
2021/05/25 03:32:28;;;;;;;0.35;0.30;;;12.70;99.90;;;;;;5070263;28;20036;-51
2021/05/25 03:34:54;;;;;;;1.65;0.50;;;12.60;99.90;;;;;;5069877;28;20029;-54
2021/05/25 03:37:19;;;;;;;0.75;0.30;;;12.60;99.90;;;;;;5070488;28;20098;-53
2021/05/25 03:39:45;;;;;;;0.43;0.40;;;12.50;99.90;;;;;;5069510;28;20108;-53
2021/05/25 03:42:11;;;;;;;0.82;0.50;;;12.60;99.90;;;;;;5069643;28;20098;-53
2021/05/25 03:44:37;;;;;;;0.82;0.40;;;12.40;99.90;;;;;;5058660;28;20021;-53
2021/05/25 03:47:02;;;;;;;0.40;0.40;;;12.10;99.90;;;;;;5051299;28;20048;-53
2021/05/25 03:49:28;;;;;;;0.70;0.50;;;12.10;99.90;;;;;;5050424;28;20021;-51
2021/05/25 03:51:54;;;;;;;1.38;0.43;;;12.00;99.90;;;;;;5063954;28;20107;-52
2021/05/25 03:54:31;;;;;;;1.67;0.40;;;12.30;99.90;;;;;;5069397;28;20021;-53
2021/05/25 03:59:46;;;;;;;0.82;0.40;;;12.30;99.90;;;;;;5048170;28;20044;-53
2021/05/25 04:02:12;;;;;;;1.55;0.90;;;12.40;99.90;;;;;;5068386;28;20410;-50
2021/05/25 04:04:37;;;;;;;1.45;0.50;;;12.40;99.90;;;;;;5069744;28;20029;-50
2021/05/25 04:07:03;;;;;;;0.88;0.50;;;12.30;99.90;;;;;;5054395;28;20153;-50
2021/05/25 04:09:28;;;;;;;1.55;0.45;;;12.20;99.90;;;;;;5065208;28;20068;-47
2021/05/25 04:11:54;;;;;;;1.30;0.40;;;12.00;99.90;;;;;;5064577;28;20084;-51
2021/05/25 04:14:21;;;;;;;1.00;0.50;;;12.00;99.90;;;;;;5048992;28;20041;-48
2021/05/25 04:16:46;;;;;;;0.45;0.30;;;11.80;99.90;;;;;;5061868;28;20025;-51
2021/05/25 04:19:13;;;;;;;0.77;0.47;;;11.90;99.90;;;;;;5056893;28;20031;-50
2021/05/25 04:21:38;;;;;;;0.40;0.40;;;11.90;99.90;;;;;;5067718;28;20032;-48
2021/05/25 04:24:05;;;;;;;2.47;0.43;;;12.00;99.90;;;;;;5065936;28;20414;-49
2021/05/25 04:26:30;;;;;;;1.73;0.50;;;12.00;99.90;;;;;;5068827;28;20781;-51
2021/05/25 04:28:56;;;;;;;0.85;0.40;;;12.00;99.90;;;;;;5069135;28;20032;-50
2021/05/25 04:31:22;;;;;;;2.28;0.40;;;12.00;99.90;;;;;;5068251;28;20040;-49
2021/05/25 04:33:48;;;;;;;0.45;0.32;;;12.00;99.90;;;;;;5068307;28;20036;-52
2021/05/25 04:36:17;;;;;;;0.82;0.47;;;12.00;99.90;;;;;;5067986;28;20021;-54
2021/05/25 04:38:42;;;;;;;1.25;0.50;;;11.90;99.90;;;;;;5067655;28;20032;-53
2021/05/25 04:41:08;;;;;;;1.33;0.55;;;11.80;99.90;;;;;;5050407;28;20094;-50
2021/05/25 04:43:34;;;;;;;1.92;0.70;;;11.80;99.90;;;;;;5058985;28;20103;-52
2021/05/25 04:46:00;;;;;;;0.80;0.40;;;11.90;99.90;;;;;;5066745;28;20067;-52
2021/05/25 04:48:26;;;;;;;2.13;0.50;;;11.90;99.90;;;;;;5066418;28;20048;-52
2021/05/25 04:50:51;;;;;;;0.70;0.40;;;11.90;99.90;;;;;;5066375;28;20450;-48
2021/05/25 04:53:17;;;;;;;0.70;0.55;;;12.00;99.90;;;;;;5067038;28;20501;-51
2021/05/25 04:55:42;;;;;;;1.95;0.57;;;12.00;99.90;;;;;;5066555;28;20056;-50
2021/05/25 04:58:10;;;;;;;0.88;0.60;;;12.00;99.90;;;;;;5065643;28;20538;-48
2021/05/25 05:00:36;;;;;;;1.35;0.55;;;12.10;99.90;;;;;;5066348;28;20028;-48
2021/05/25 05:03:01;;;;;;;0.63;0.40;;;12.20;99.90;;;;;;5066993;28;20028;-50
2021/05/25 05:05:27;;;;;;;1.05;0.65;;;12.20;99.90;;;;;;5067171;28;20397;-50
2021/05/25 05:07:53;;;;;;;0.82;0.70;;;12.20;99.90;;;;;;5065090;28;20040;-51
2021/05/25 05:10:19;;;;;;;1.80;0.80;;;12.20;99.90;;;;;;5066844;28;20028;-49
2021/05/25 05:12:46;;;;;;;2.00;0.70;;;12.30;99.90;;;;;;5066710;28;20638;-51
2021/05/25 05:15:13;;;;;;;1.70;0.90;;;12.30;99.90;;;;;;5066205;28;20722;-48
2021/05/25 05:17:40;;;;;;;2.15;0.70;;;12.20;99.90;;;;;;5065662;28;20028;-49
2021/05/25 05:20:08;;;;;;;2.20;0.60;;;12.00;99.90;;;;;;5066543;28;20028;-48
2021/05/25 05:22:35;;;;;;;1.00;0.50;;;11.90;99.90;;;;;;5067559;28;20032;-48
2021/05/25 05:25:01;;;;;;;1.25;0.50;;;12.10;99.90;;;;;;5065150;28;20043;-49
2021/05/25 05:27:27;;;;;;;0.60;0.50;;;12.20;99.90;;;;;;5066880;28;20375;-49
2021/05/25 05:29:53;;;;;;;3.30;0.60;;;12.30;99.90;;;;;;5066499;28;20887;-52
2021/05/25 05:32:18;;;;;;;3.40;0.80;;;12.30;99.90;;;;;;5064814;28;20043;-49
2021/05/25 05:34:44;;;;;;;1.02;0.52;;;12.20;99.90;;;;;;5065517;28;20395;-50
2021/05/25 05:37:10;;;;;;;2.35;0.50;;;12.20;99.90;;;;;;5066724;28;20028;-50
2021/05/25 05:39:36;;;;;;;1.40;0.60;;;12.30;99.90;;;;;;5066807;28;20506;-53
2021/05/25 05:42:01;;;;;;;1.20;0.40;;;12.30;99.90;;;;;;5065948;28;20032;-49
2021/05/25 05:44:27;;;;;;;0.47;0.40;;;12.40;99.90;;;;;;5066389;28;20064;-48
2021/05/25 05:46:53;;;;;;;2.38;0.50;;;12.50;99.90;;;;;;5065882;28;20021;-47
2021/05/25 05:49:22;;;;;;;1.38;0.70;;;12.60;99.90;;;;;;5065068;28;20387;-47
2021/05/25 05:51:48;;;;;;;2.25;0.75;;;12.40;99.90;;;;;;5066111;28;20035;-47
2021/05/25 05:54:13;;;;;;;1.35;0.50;;;12.30;99.90;;;;;;5065841;28;20037;-50
2021/05/25 05:56:39;;;;;;;2.40;0.52;;;12.30;99.90;;;;;;5065392;28;20368;-48
2021/05/25 05:59:05;;;;;;;1.80;0.50;;;12.30;99.90;;;;;;5065556;28;20553;-47
2021/05/25 06:01:30;;;;;;;1.42;0.50;;;12.30;99.90;;;;;;5063957;28;20036;-49
2021/05/25 06:03:56;;;;;;;0.75;0.40;;;12.20;99.90;;;;;;5065585;28;20625;-48
2021/05/25 06:06:22;;;;;;;0.82;0.50;;;12.30;99.90;;;;;;5062392;28;20403;-48
2021/05/25 06:08:47;;;;;;;2.03;0.60;;;12.30;99.90;;;;;;5063509;28;20398;-48
2021/05/25 06:11:13;;;;;;;1.52;0.60;;;12.20;99.90;;;;;;5064417;28;20536;-48
2021/05/25 06:13:40;;;;;;;1.23;0.60;;;12.40;99.90;;;;;;5064181;28;20356;-50
2021/05/25 06:16:06;;;;;;;2.05;0.68;;;12.50;99.90;;;;;;5065087;28;20043;-47
2021/05/25 06:18:34;;;;;;;3.13;0.82;;;12.50;99.90;;;;;;5063752;28;20028;-48
2021/05/25 06:21:01;;;;;;;1.65;0.85;;;12.30;99.90;;;;;;5060050;28;20025;-48
2021/05/25 06:23:28;;;;;;;2.58;0.88;;;12.40;99.90;;;;;;5061455;28;20115;-48
2021/05/25 06:25:54;;;;;;;3.17;0.90;;;12.60;99.90;;;;;;5055307;28;20875;-50
2021/05/25 06:28:20;;;;;;;1.70;0.70;;;12.60;99.90;;;;;;5065503;28;20068;-47
2021/05/25 06:30:46;;;;;;;2.33;0.88;;;12.60;99.90;;;;;;5063677;28;20499;-52
2021/05/25 06:33:13;;;;;;;1.92;0.60;;;12.60;99.90;;;;;;5067806;28;20036;-52
2021/05/25 06:35:39;;;;;;;1.33;0.60;;;12.60;99.90;;;;;;5065256;28;20028;-49
2021/05/25 06:38:06;;;;;;;1.35;0.50;;;12.70;99.90;;;;;;5066427;28;20032;-50
2021/05/25 06:40:31;;;;;;;1.73;0.80;;;12.60;99.90;;;;;;5065542;28;20071;-50
2021/05/25 06:42:57;;;;;;;1.35;0.70;;;12.60;99.90;;;;;;5063994;28;20816;-52
2021/05/25 06:45:25;;;;;;;1.10;0.55;;;12.60;99.90;;;;;;5062787;28;20135;-53
2021/05/25 06:47:51;;;;;;;2.80;0.80;;;12.70;99.90;;;;;;5063450;28;20052;-53
2021/05/25 06:50:17;;;;;;;1.67;0.60;;;12.70;99.90;;;;;;5062959;28;20028;-52
2021/05/25 06:52:43;;;;;;;1.45;0.50;;;12.70;99.90;;;;;;5062992;28;20020;-53
2021/05/25 06:55:13;;;;;;;1.70;0.50;;;12.80;99.90;;;;;;5062966;28;20043;-50
2021/05/25 06:57:39;;;;;;;0.60;0.50;;;12.80;99.90;;;;;;5063419;28;20029;-53
2021/05/25 07:00:07;;;;;;;1.10;0.50;;;12.80;99.90;;;;;;5068118;28;20021;-53
2021/05/25 07:02:33;;;;;;;1.88;0.60;;;12.80;99.90;;;;;;5065768;28;20025;-53
2021/05/25 07:04:59;;;;;;;1.05;0.50;;;12.60;99.90;;;;;;5068714;28;20028;-53
2021/05/25 07:07:25;;;;;;;1.90;0.70;;;12.80;99.90;;;;;;5068407;28;20024;-53
2021/05/25 07:09:51;;;;;;;2.35;0.50;;;12.70;99.90;;;;;;5068878;28;20109;-52
2021/05/25 07:12:17;;;;;;;2.25;0.60;;;12.60;99.90;;;;;;5069461;28;20041;-53
2021/05/25 07:14:45;;;;;;;1.65;0.55;;;12.60;99.90;;;;;;5067796;28;20425;-53
2021/05/25 07:17:11;;;;;;;2.40;0.70;;;12.70;99.90;;;;;;5068182;28;20383;-53
2021/05/25 07:19:36;;;;;;;1.52;0.50;;;12.60;99.90;;;;;;5068235;28;20112;-53
2021/05/25 07:22:03;;;;;;;1.58;0.50;;;12.70;99.90;;;;;;5069524;28;20031;-53
2021/05/25 07:24:30;;;;;;;1.13;0.63;;;12.70;99.90;;;;;;5065277;28;20107;-53
2021/05/25 07:26:56;;;;;;;3.65;0.90;;;12.80;99.90;;;;;;5068542;28;20056;-50
2021/05/25 07:29:22;;;;;;;2.10;0.50;;;12.70;99.90;;;;;;5064619;28;20028;-52
2021/05/25 07:31:49;;;;;;;0.73;0.50;;;12.90;99.90;;;;;;5064646;28;20531;-50
2021/05/25 07:34:14;;;;;;;2.08;0.60;;;13.00;99.90;;;;;;5066482;28;20035;-52
2021/05/25 07:36:41;;;;;;;1.25;0.47;;;12.90;99.90;;;;;;5068138;28;20135;-51
2021/05/25 07:39:07;;;;;;;1.13;0.40;;;13.10;99.90;;;;;;5067166;28;20024;-53
2021/05/25 07:41:34;;;;;;;1.05;0.50;;;13.10;99.90;;;;;;5067886;28;20028;-51
2021/05/25 07:43:59;;;;;;;0.90;0.40;;;13.30;99.90;;;;;;5065569;28;20021;-52
2021/05/25 07:46:26;;;;;;;0.45;0.30;;;13.30;99.90;;;;;;5067379;28;20023;-51
2021/05/25 07:48:52;;;;;;;1.98;0.90;;;13.30;99.90;;;;;;5066317;28;20021;-71
2021/05/25 07:51:18;;;;;;;0.65;0.50;;;13.30;99.90;;;;;;5067110;28;20029;-71
2021/05/25 07:53:44;;;;;;;2.10;0.65;;;13.30;99.90;;;;;;5065918;28;20024;-69
2021/05/25 07:56:11;;;;;;;1.20;0.50;;;13.20;99.90;;;;;;5066999;28;20028;-68
2021/05/25 07:58:37;;;;;;;1.55;0.50;;;13.40;99.90;;;;;;5064036;28;20132;-67
2021/05/25 08:01:04;;;;;;;0.95;0.43;;;13.50;99.90;;;;;;5067153;28;20120;-68
2021/05/25 08:03:30;;;;;;;1.70;0.40;;;13.40;99.90;;;;;;5066966;28;20025;-68
2021/05/25 08:05:58;;;;;;;2.28;0.63;;;13.50;99.90;;;;;;5066492;28;20103;-68
2021/05/25 08:08:30;;;;;;;0.30;0.30;;;13.50;99.90;;;;;;5066765;28;20024;-68
2021/05/25 08:10:57;;;;;;;1.70;0.50;;;13.40;99.90;;;;;;5066153;28;20426;-68
2021/05/25 08:13:22;;;;;;;0.65;0.40;;;13.40;99.90;;;;;;5066649;28;20415;-68
2021/05/25 08:15:50;;;;;;;2.20;0.40;;;13.60;99.90;;;;;;5064716;28;20021;-68
2021/05/25 08:18:37;;;;;;;0.85;0.35;;;13.60;99.90;;;;;;5066560;28;20032;-69
2021/05/25 08:21:04;;;;;;;0.50;0.28;;;13.60;99.90;;;;;;5067134;28;20471;-68
2021/05/25 08:23:31;;;;;;;1.08;0.30;;;13.80;99.90;;;;;;5066624;28;20056;-68
2021/05/25 08:25:57;;;;;;;0.50;0.40;;;13.80;99.90;;;;;;5066337;28;20632;-69
2021/05/25 08:28:24;;;;;;;0.45;0.32;;;13.80;99.90;;;;;;5066213;28;20444;-69
2021/05/25 08:30:51;;;;;;;0.73;0.32;;;14.00;99.90;;;;;;5066270;28;20029;-68
2021/05/25 08:33:18;;;;;;;0.30;0.30;;;14.00;99.90;;;;;;5066107;28;20052;-68
2021/05/25 08:35:45;;;;;;;0.57;0.40;;;14.00;99.90;;;;;;5065968;28;20041;-71
2021/05/25 08:38:13;;;;;;;0.30;0.30;;;13.90;99.90;;;;;;5066080;28;20043;-70
2021/05/25 08:40:40;;;;;;;0.35;0.30;;;13.90;99.90;;;;;;5063551;28;20028;-71
2021/05/25 08:43:06;;;;;;;0.70;0.50;;;13.90;99.90;;;;;;5066086;28;20028;-71
2021/05/25 08:45:33;;;;;;;1.08;0.40;;;14.00;99.90;;;;;;5066011;28;20399;-71
2021/05/25 08:48:00;;;;;;;0.22;0.22;;;14.10;99.90;;;;;;5064745;28;20044;-71
2021/05/25 08:50:29;;;;;;;0.30;0.28;;;14.10;99.90;;;;;;5065790;28;20077;-71
2021/05/25 08:52:59;;;;;;;0.50;0.30;;;14.20;99.90;;;;;;5065241;28;20033;-71
2021/05/25 08:55:27;;;;;;;0.43;0.43;;;14.10;99.90;;;;;;5065135;28;20410;-71
2021/05/25 08:57:54;;;;;;;0.30;0.30;;;14.10;99.90;;;;;;5064318;28;20463;-71
2021/05/25 09:00:19;;;;;;;0.57;0.40;;;14.10;99.90;;;;;;5065405;28;20275;-71
2021/05/25 09:02:45;;;;;;;0.35;0.30;;;14.10;99.90;;;;;;5065282;28;20469;-71
2021/05/25 09:05:15;;;;;;;0.47;0.30;;;14.20;99.90;;;;;;5065608;28;20064;-71
2021/05/25 09:07:43;;;;;;;0.20;0.20;;;14.30;99.90;;;;;;5065565;28;20040;-71
2021/05/25 09:10:17;;;;;;;0.75;0.30;;;14.40;99.90;;;;;;5066337;28;20024;-71
2021/05/25 09:12:54;;;;;;;0.85;0.40;;;14.40;99.90;;;;;;5065360;28;20123;-71
2021/05/25 09:15:46;;;;;;;0.30;0.30;;;14.50;99.90;;;;;;5065057;28;20040;-71
2021/05/25 09:18:17;;;;;;;0.90;0.40;;;14.40;99.90;;;;;;5064302;28;20214;-71
2021/05/25 09:20:46;;;;;;;0.73;0.32;;;14.40;99.90;;;;;;5064873;28;20032;-71
2021/05/25 09:23:15;;;;;;;0.40;0.30;;;14.40;99.90;;;;;;5064541;28;20333;-72
2021/05/25 09:25:51;;;;;;;1.30;0.57;;;14.30;99.90;;;;;;5064698;28;20491;-71
2021/05/25 09:28:17;;;;;;;0.35;0.35;;;14.30;99.90;;;;;;5065014;28;20028;-71
2021/05/25 09:30:46;;;;;;;1.98;0.50;;;14.30;99.90;;;;;;5064967;28;20086;-71
2021/05/25 09:33:12;;;;;;;1.30;0.40;;;14.10;99.90;;;;;;5063623;28;20032;-70
2021/05/25 09:35:41;;;;;;;0.75;0.55;;;14.10;99.90;;;;;;5065458;28;20058;-71
2021/05/25 09:38:14;;;;;;;0.50;0.30;;;14.20;99.90;;;;;;5065690;28;20028;-71
2021/05/25 09:40:51;;;;;;;0.88;0.32;;;14.40;99.90;;;;;;5064714;28;20380;-72
2021/05/25 09:43:24;;;;;;;0.73;0.32;;;14.20;99.90;;;;;;5064710;28;20024;-72
2021/05/25 09:46:02;;;;;;;0.30;0.30;;;14.20;99.90;;;;;;5064598;28;20410;-71
2021/05/25 09:48:53;;;;;;;0.45;0.40;;;14.30;99.90;;;;;;5064775;28;20024;-71
2021/05/25 09:51:30;;;;;;;0.95;0.32;;;14.40;99.90;;;;;;5064996;28;20502;-71
2021/05/25 09:53:56;;;;;;;0.68;0.50;;;14.30;99.90;;;;;;5063784;28;20028;-72
2021/05/25 09:56:29;;;;;;;1.05;0.50;;;14.20;99.90;;;;;;5064205;28;20406;-71
2021/05/25 09:58:58;;;;;;;1.03;0.30;;;14.30;99.90;;;;;;5063580;28;20032;-70
2021/05/25 10:01:34;;;;;;;0.73;0.40;;;14.50;99.90;;;;;;5064905;28;20028;-71
2021/05/25 10:04:10;;;;;;;0.40;0.40;;;14.70;99.90;;;;;;5064793;28;20524;-71
2021/05/25 10:06:37;;;;;;;1.27;0.40;;;14.90;99.90;;;;;;5065223;28;20060;-71
2021/05/25 10:09:02;;;;;;;0.95;0.38;;;14.90;99.90;;;;;;5064557;28;20027;-72
2021/05/25 10:11:30;;;;;;;1.48;0.47;;;14.80;99.90;;;;;;5064715;28;20032;-72
2021/05/25 10:13:57;;;;;;;0.63;0.40;;;14.90;99.90;;;;;;5064577;28;20515;-72
2021/05/25 10:16:28;;;;;;;0.52;0.30;;;15.00;99.90;;;;;;5064494;28;20017;-72
2021/05/25 10:19:14;;;;;;;0.57;0.20;;;15.10;99.90;;;;;;5064429;28;20033;-72
2021/05/25 10:21:43;;;;;;;0.65;0.50;;;15.30;99.90;;;;;;5065250;28;20020;-72
2021/05/25 10:24:09;;;;;;;0.63;0.40;;;15.30;99.90;;;;;;5065113;28;20028;-72
2021/05/25 10:26:36;;;;;;;1.05;0.70;;;15.40;99.90;;;;;;5064798;28;20020;-71
2021/05/25 10:29:04;;;;;;;2.47;0.52;;;15.40;99.90;;;;;;5064264;28;20075;-71
2021/05/25 10:31:35;;;;;;;1.17;0.47;;;15.50;99.90;;;;;;5064706;28;20041;-71
2021/05/25 10:34:22;;;;;;;0.60;0.40;;;15.60;99.90;;;;;;5065413;28;20572;-71
2021/05/25 10:36:55;;;;;;;1.20;0.43;;;15.70;99.90;;;;;;5067652;28;20025;-70
2021/05/25 10:39:31;;;;;;;1.85;0.60;;;15.70;99.90;;;;;;5067916;28;20727;-71
2021/05/25 10:42:19;;;;;;;1.55;0.50;;;15.70;99.90;;;;;;5069741;28;20056;-71
2021/05/25 10:44:50;;;;;;;0.98;0.50;;;15.60;99.90;;;;;;5068749;28;20678;-71
2021/05/25 10:50:38;;;;;;;1.20;0.47;;;16.20;99.90;;;;;;5066418;28;20090;-72
2021/05/25 10:53:05;;;;;;;0.40;0.30;;;16.50;99.90;;;;;;5049841;28;20044;-69
2021/05/25 10:55:35;;;;;;;1.13;0.40;;;16.40;99.90;;;;;;5049394;28;20028;-69
2021/05/25 10:58:35;;;;;;;0.80;0.38;;;16.10;99.90;;;;;;5057836;28;20480;-68
2021/05/25 11:01:06;;;;;;;1.27;0.45;;;16.40;99.90;;;;;;5068517;28;20081;-68
2021/05/25 11:03:33;;;;;;;1.88;0.63;;;16.60;99.90;;;;;;5069490;28;20101;-69
2021/05/25 11:06:03;;;;;;;1.90;0.60;;;16.60;99.90;;;;;;5069343;28;20009;-71
2021/05/25 11:08:31;;;;;;;1.05;0.55;;;16.60;99.90;;;;;;5069341;28;20111;-70
2021/05/25 11:11:12;;;;;;;0.40;0.40;;;16.60;99.90;;;;;;5068143;28;20081;-71
2021/05/25 11:13:43;;;;;;;0.73;0.40;;;16.60;99.90;;;;;;5069429;28;20093;-71
2021/05/25 11:16:17;;;;;;;0.95;0.45;;;16.30;99.90;;;;;;5069921;28;20025;-71
2021/05/25 11:21:44;;;;;;;0.55;0.38;;;16.30;99.90;;;;;;5067049;28;20062;-71
2021/05/25 11:27:09;;;;;;;0.63;0.40;;;16.50;99.90;;;;;;5081391;28;20040;-70
2021/05/25 11:29:37;;;;;;;0.75;0.40;;;16.90;99.90;;;;;;5068789;28;20031;-71
2021/05/25 11:32:12;;;;;;;0.82;0.40;;;17.20;99.90;;;;;;5073688;28;20509;-70
2021/05/25 11:34:38;;;;;;;0.50;0.30;;;17.40;99.90;;;;;;5069187;28;20012;-70
2021/05/25 11:37:07;;;;;;;0.70;0.40;;;17.10;99.90;;;;;;5066896;28;20102;-70
2021/05/25 11:39:34;;;;;;;0.30;0.30;;;16.60;99.90;;;;;;5068882;28;20506;-71
2021/05/25 11:42:08;;;;;;;0.55;0.38;;;17.00;99.90;;;;;;5066929;28;20030;-71
2021/05/25 11:44:45;;;;;;;0.98;0.40;;;17.30;99.90;;;;;;5068225;28;20040;-72
2021/05/25 11:47:11;;;;;;;1.13;0.38;;;17.50;99.90;;;;;;5068027;28;20033;-72
2021/05/25 11:49:43;;;;;;;0.30;0.30;;;17.80;99.90;;;;;;5068761;28;20024;-72
2021/05/25 11:52:36;;;;;;;0.98;0.30;;;18.20;99.90;;;;;;5067583;28;20024;-72
2021/05/25 11:55:11;;;;;;;0.30;0.30;;;18.20;99.90;;;;;;5066054;28;20048;-71
2021/05/25 11:57:40;;;;;;;0.40;0.40;;;17.70;99.90;;;;;;5068656;28;20032;-71
2021/05/25 12:00:08;;;;;;;0.85;0.30;;;18.10;99.90;;;;;;5068669;28;20508;-70
2021/05/25 12:02:34;;;;;;;0.85;0.40;;;17.80;99.90;;;;;;5068108;28;20021;-68
2021/05/25 12:05:07;;;;;;;0.57;0.38;;;18.10;99.90;;;;;;5068356;28;20039;-63
2021/05/25 12:07:34;;;;;;;0.30;0.30;;;18.80;99.90;;;;;;5067464;28;20017;-63
2021/05/25 12:10:02;;;;;;;0.43;0.28;;;18.90;99.90;;;;;;5060927;28;20740;-63
2021/05/25 12:12:29;;;;;;;4.45;0.50;;;19.00;99.90;;;;;;5068022;28;20028;-63
2021/05/25 12:15:00;;;;;;;2.20;0.75;;;18.20;99.90;;;;;;5066467;28;20128;-63
2021/05/25 12:17:27;;;;;;;3.70;0.63;;;17.70;99.90;;;;;;5067429;28;20044;-64
2021/05/25 12:19:58;;;;;;;0.75;0.32;;;17.80;99.90;;;;;;5066296;28;20028;-64
2021/05/25 12:22:38;;;;;;;0.63;0.40;;;17.70;99.90;;;;;;5067735;28;20044;-64
2021/05/25 12:25:15;;;;;;;2.15;0.30;;;17.70;99.90;;;;;;5067544;28;20096;-64
2021/05/25 12:27:41;;;;;;;1.05;0.40;;;18.00;99.90;;;;;;5065972;28;20093;-63
2021/05/25 12:30:08;;;;;;;0.90;0.40;;;18.10;99.90;;;;;;5066856;28;20033;-63
2021/05/25 12:32:34;;;;;;;0.85;0.30;;;18.30;99.90;;;;;;5067584;28;20033;-63
2021/05/25 12:35:01;;;;;;;0.25;0.25;;;18.40;99.90;;;;;;5066088;28;20044;-63
2021/05/25 12:37:27;;;;;;;0.30;0.30;;;18.60;99.90;;;;;;5067878;28;20029;-63
2021/05/25 12:40:11;;;;;;;1.38;0.40;;;18.50;99.90;;;;;;5067445;28;20075;-68
2021/05/25 12:42:40;;;;;;;;;;;18.10;99.90;;;;;;5059886;28;20044;-69
2021/05/25 12:45:14;;;;;;;1.27;0.40;;;17.70;99.90;;;;;;5058699;28;19908;-69
2021/05/25 12:47:50;;;;;;;0.43;0.40;;;17.50;99.90;;;;;;5066438;28;20114;-68
2021/05/25 12:50:26;;;;;;;0.40;0.40;;;17.20;99.90;;;;;;5066290;28;20376;-69
2021/05/25 12:53:13;;;;;;;0.57;0.30;;;17.20;99.90;;;;;;5063574;28;20532;-71
2021/05/25 12:55:50;;;;;;;0.45;0.40;;;17.20;99.90;;;;;;5055325;28;20028;-71
2021/05/25 12:58:37;;;;;;;0.52;0.40;;;17.70;99.90;;;;;;5064212;28;20475;-71
2021/05/25 13:01:29;;;;;;;2.63;0.73;;;17.80;99.90;;;;;;5064723;28;20033;-71
2021/05/25 13:04:03;;;;;;;0.73;0.45;;;18.10;99.90;;;;;;5064285;28;20033;-71
2021/05/25 13:06:47;;;;;;;1.42;0.55;;;18.70;99.90;;;;;;5065776;28;20044;-72